Barrigada, Guam
Current Conditions -  °F | °C
As of 10:54 AM on Saturday 20 Dec 2014 (Local Time) from PGUM Reporting Station
Scattered Clouds Scattered Clouds  
Wind Chill: 88°   Ceiling: Unl
Heat Index: 97°   Visibility: 10mi
Dew Point: 74°   Wind: 24mph
Humidity: 63%   Direction: 70°ENE
Pressure: 29.93"   Gusts: 33mph
Location:  13.47°N, 144.8°E
Report Text: PGUM 200054Z 07021G29KT 10SM FEW026 SCT036 SCT046 31/23 A2993 RMK AO2 PK WND 07029/0050 SLP126 T03110233
Loading
Personal Weather Stations






























Interactive Weather Map New forecast layout! Learn more

10-Day Weather Forecast

Advertisements
Track Severe Weather on mobile